createdAt,value
2018-06-02T00:00:48.959Z,5.97
2018-06-02T00:03:17.166Z,5.57
2018-06-02T00:05:45.362Z,7.20
2018-06-02T00:08:13.555Z,7.03
2018-06-02T00:10:41.776Z,7.43
2018-06-02T00:13:09.951Z,8.17
2018-06-02T00:15:38.147Z,9.03
2018-06-02T00:18:06.338Z,9.63
2018-06-02T00:20:34.535Z,9.13
2018-06-02T00:23:02.734Z,12.97
2018-06-02T00:25:31.710Z,9.13
2018-06-02T00:27:59.910Z,9.93
2018-06-02T00:30:28.107Z,8.80
2018-06-02T00:32:56.312Z,10.73
2018-06-02T00:35:24.508Z,8.97
2018-06-02T00:37:52.723Z,10.67
2018-06-02T00:40:20.933Z,12.87
2018-06-02T00:42:49.139Z,10.23
2018-06-02T00:45:18.108Z,10.60
2018-06-02T00:47:46.304Z,9.37
2018-06-02T00:50:14.527Z,12.07
2018-06-02T00:52:42.726Z,10.27
2018-06-02T00:55:10.932Z,9.70
2018-06-02T00:57:39.119Z,10.47
2018-06-02T01:00:07.323Z,11.87
2018-06-02T01:02:35.522Z,8.73
2018-06-02T01:05:03.714Z,9.23
2018-06-02T01:07:31.914Z,10.07
2018-06-02T01:10:00.127Z,11.13
2018-06-02T01:12:28.310Z,12.13
2018-06-02T01:14:56.518Z,11.30
2018-06-02T01:17:24.986Z,9.73
2018-06-02T01:19:53.207Z,11.37
2018-06-02T01:22:21.418Z,11.90
2018-06-02T01:24:49.603Z,10.93
2018-06-02T01:27:17.819Z,10.37
2018-06-02T01:29:46.018Z,11.27
2018-06-02T01:32:14.218Z,11.33
2018-06-02T01:34:42.420Z,10.70
2018-06-02T01:37:10.624Z,9.03
2018-06-02T01:39:38.869Z,11.83
2018-06-02T01:42:07.042Z,11.73
2018-06-02T01:44:35.249Z,11.83
2018-06-02T01:47:03.459Z,11.27
2018-06-02T01:49:31.665Z,11.50
2018-06-02T01:51:59.879Z,12.43
2018-06-02T01:54:28.128Z,10.30
2018-06-02T01:56:57.066Z,10.63
2018-06-02T01:59:25.290Z,12.07
2018-06-02T02:01:53.491Z,12.00
2018-06-02T02:04:21.703Z,11.03
2018-06-02T02:06:49.912Z,11.40
2018-06-02T02:09:18.145Z,11.13
2018-06-02T02:11:46.346Z,11.80
2018-06-02T02:14:14.542Z,10.70
2018-06-02T02:16:42.742Z,10.10
2018-06-02T02:19:10.947Z,11.07
2018-06-02T02:21:39.907Z,12.53
2018-06-02T02:24:08.106Z,12.37
2018-06-02T02:26:36.312Z,10.93
2018-06-02T02:29:04.514Z,12.13
2018-06-02T02:31:32.803Z,13.13
2018-06-02T02:34:01.007Z,11.33
2018-06-02T02:36:29.224Z,12.40
2018-06-02T02:38:57.414Z,12.23
2018-06-02T02:41:25.624Z,14.13
2018-06-02T02:43:53.871Z,12.07
2018-06-02T02:46:22.064Z,9.30
2018-06-02T02:48:50.254Z,9.70
2018-06-02T02:51:19.226Z,10.43
2018-06-02T02:53:47.434Z,11.53
2018-06-02T02:56:15.635Z,11.50
2018-06-02T02:58:43.839Z,8.43
2018-06-02T03:01:12.145Z,10.07
2018-06-02T03:03:41.111Z,9.40
2018-06-02T03:06:09.335Z,10.53
2018-06-02T03:08:37.546Z,8.70
2018-06-02T03:11:06.576Z,8.70
2018-06-02T03:13:35.525Z,7.67
2018-06-02T03:16:03.714Z,8.23
2018-06-02T03:18:31.964Z,9.10
2018-06-02T03:21:00.274Z,11.50
2018-06-02T03:23:28.474Z,8.87
2018-06-02T03:25:56.678Z,6.57
2018-06-02T03:28:24.872Z,9.13
2018-06-02T03:30:53.109Z,8.50
2018-06-02T03:33:21.279Z,7.30
2018-06-02T03:35:50.249Z,7.20
2018-06-02T03:38:18.439Z,6.70
2018-06-02T03:40:46.879Z,7.10
2018-06-02T03:43:15.082Z,6.63
2018-06-02T03:45:43.292Z,8.43
2018-06-02T03:48:11.494Z,6.33
2018-06-02T03:50:39.835Z,6.43
2018-06-02T03:53:08.003Z,6.40
2018-06-02T03:55:36.223Z,6.93
2018-06-02T03:58:04.440Z,6.90
2018-06-02T04:00:32.680Z,7.00
2018-06-02T04:03:00.986Z,6.60
2018-06-02T04:05:29.250Z,6.50
2018-06-02T04:07:57.464Z,7.33
2018-06-02T04:10:25.685Z,5.87
2018-06-02T04:12:54.672Z,7.10
2018-06-02T04:15:22.931Z,7.30
2018-06-02T04:17:51.105Z,6.60
2018-06-02T04:20:19.314Z,8.03
2018-06-02T04:22:47.547Z,8.50
2018-06-02T04:25:15.774Z,8.20
2018-06-02T04:27:44.734Z,7.20
2018-06-02T04:30:12.943Z,7.37
2018-06-02T04:32:41.150Z,7.77
2018-06-02T04:35:09.344Z,7.50
2018-06-02T04:37:37.535Z,7.90
2018-06-02T04:40:06.498Z,9.20
2018-06-02T04:42:34.694Z,10.00
2018-06-02T04:45:02.911Z,10.73
2018-06-02T04:47:31.237Z,10.20
2018-06-02T04:49:59.406Z,11.23
2018-06-02T04:52:27.630Z,9.63
2018-06-02T04:54:55.826Z,9.97
2018-06-02T04:57:24.038Z,11.37
2018-06-02T04:59:52.234Z,10.90
2018-06-02T05:02:20.479Z,10.47
2018-06-02T05:04:48.688Z,13.03
2018-06-02T05:07:16.887Z,11.30
2018-06-02T05:09:45.116Z,11.90
2018-06-02T05:12:13.346Z,12.53
2018-06-02T05:14:41.566Z,12.40
2018-06-02T05:17:09.846Z,12.57
2018-06-02T05:19:38.002Z,10.00
2018-06-02T05:22:06.214Z,13.43
2018-06-02T05:24:34.410Z,14.63
2018-06-02T05:27:02.654Z,15.03
2018-06-02T05:29:30.862Z,14.70
2018-06-02T05:31:59.062Z,12.60
2018-06-02T05:34:28.043Z,16.77
2018-06-02T05:36:56.246Z,16.00
2018-06-02T05:39:24.443Z,14.70
2018-06-02T05:41:52.648Z,17.07
2018-06-02T05:44:20.850Z,13.97
2018-06-02T05:46:49.067Z,12.27
2018-06-02T05:49:17.266Z,14.47
2018-06-02T05:51:45.530Z,14.93
2018-06-02T05:54:13.737Z,13.23
2018-06-02T05:56:41.942Z,14.47
2018-06-02T05:59:10.190Z,16.77
2018-06-02T06:01:39.166Z,16.77
2018-06-02T06:04:07.558Z,15.20
2018-06-02T06:06:36.531Z,15.20
2018-06-02T06:09:05.650Z,16.40
2018-06-02T06:11:33.882Z,15.20
2018-06-02T06:14:02.093Z,13.23
2018-06-02T06:16:30.314Z,15.50
2018-06-02T06:18:58.524Z,12.63
2018-06-02T06:21:26.726Z,14.00
2018-06-02T06:23:54.942Z,17.40
2018-06-02T06:26:23.156Z,14.10
2018-06-02T06:28:51.371Z,17.40
2018-06-02T06:31:19.578Z,14.27
2018-06-02T06:33:47.779Z,12.77
2018-06-02T06:36:15.998Z,14.33
2018-06-02T06:38:44.202Z,13.20
2018-06-02T06:41:12.402Z,13.53
2018-06-02T06:43:40.616Z,15.27
2018-06-02T06:46:08.811Z,16.00
2018-06-02T06:48:37.034Z,15.63
2018-06-02T06:51:05.237Z,11.87
2018-06-02T06:53:33.432Z,15.90
2018-06-02T06:56:01.634Z,12.33
2018-06-02T06:58:29.847Z,12.13
2018-06-02T07:00:58.057Z,13.83
2018-06-02T07:03:26.273Z,12.17
2018-06-02T07:05:54.472Z,12.67
2018-06-02T07:08:22.670Z,12.60
2018-06-02T07:10:50.886Z,11.50
2018-06-02T07:13:19.102Z,15.60
2018-06-02T07:15:47.302Z,11.07
2018-06-02T07:18:15.511Z,11.83
2018-06-02T07:20:44.498Z,12.90
2018-06-02T07:23:12.690Z,10.90
2018-06-02T07:25:41.746Z,13.60
2018-06-02T07:28:10.523Z,13.33
2018-06-02T07:30:38.729Z,20.80
2018-06-02T07:33:07.739Z,15.80
2018-06-02T07:35:35.950Z,17.17
2018-06-02T07:38:04.167Z,18.37
2018-06-02T07:40:33.140Z,17.10
2018-06-02T07:43:01.423Z,18.57
2018-06-02T07:45:29.647Z,15.60
2018-06-02T07:47:57.859Z,20.03
2018-06-02T07:50:26.119Z,19.57
2018-06-02T07:52:54.328Z,15.87
2018-06-02T07:55:22.540Z,17.70
2018-06-02T07:57:50.831Z,14.87
2018-06-02T08:00:20.484Z,20.60
2018-06-02T08:02:48.643Z,21.07
2018-06-02T08:05:16.847Z,21.87
2018-06-02T08:07:46.027Z,28.67
2018-06-02T08:10:14.202Z,34.97
2018-06-02T08:12:42.404Z,33.90
2018-06-02T08:15:10.610Z,35.80
2018-06-02T08:17:38.820Z,43.43
2018-06-02T08:20:07.026Z,43.33
2018-06-02T08:22:35.256Z,50.13
2018-06-02T08:25:03.452Z,47.60
2018-06-02T08:27:32.421Z,48.07
2018-06-02T08:30:00.640Z,38.87
2018-06-02T08:32:28.834Z,46.97
2018-06-02T08:34:57.055Z,44.83
2018-06-02T08:37:26.030Z,41.37
2018-06-02T08:39:54.242Z,43.87
2018-06-02T08:42:22.447Z,37.23
2018-06-02T08:44:50.658Z,37.50
2018-06-02T08:47:18.874Z,34.73
2018-06-02T08:49:47.088Z,39.33
2018-06-02T08:52:15.286Z,39.33
2018-06-02T08:54:43.499Z,35.97
2018-06-02T08:57:11.702Z,32.97
2018-06-02T08:59:39.935Z,27.50
2018-06-02T09:02:08.270Z,28.70
2018-06-02T09:04:36.475Z,28.57
2018-06-02T09:07:04.680Z,23.03
2018-06-02T09:09:32.878Z,25.70
2018-06-02T09:12:01.109Z,22.13
2018-06-02T09:14:29.320Z,22.60
2018-06-02T09:16:57.526Z,25.13
2018-06-02T09:19:25.732Z,21.60
2018-06-02T09:21:54.078Z,20.87
2018-06-02T09:24:23.084Z,22.07
2018-06-02T09:26:52.051Z,19.10
2018-06-02T09:29:21.158Z,19.90
2018-06-02T09:31:49.478Z,21.20
2018-06-02T09:34:17.711Z,17.63
2018-06-02T09:36:47.434Z,22.70
2018-06-02T09:39:15.646Z,21.53
2018-06-02T09:41:43.851Z,21.10
2018-06-02T09:44:12.066Z,19.40
2018-06-02T09:46:40.268Z,21.50
2018-06-02T09:49:08.496Z,18.57
2018-06-02T09:51:37.463Z,18.13
2018-06-02T09:54:05.680Z,17.97
2018-06-02T09:56:33.888Z,18.77
2018-06-02T09:59:02.120Z,16.87
2018-06-02T10:01:30.322Z,16.27
2018-06-02T10:03:58.534Z,15.70
2018-06-02T10:06:26.744Z,19.17
2018-06-02T10:08:54.946Z,19.30
2018-06-02T10:11:23.369Z,20.03
2018-06-02T10:13:51.563Z,17.53
2018-06-02T10:16:19.774Z,16.50
2018-06-02T10:18:47.975Z,17.17
2018-06-02T10:21:16.182Z,20.17
2018-06-02T10:23:44.540Z,18.03
2018-06-02T10:26:12.719Z,13.40
2018-06-02T10:28:40.923Z,15.47
2018-06-02T10:31:09.135Z,16.23
2018-06-02T10:33:37.342Z,15.80
2018-06-02T10:36:06.854Z,15.97
2018-06-02T10:38:35.075Z,15.97
2018-06-02T10:41:03.270Z,15.23
2018-06-02T10:43:31.478Z,13.93
2018-06-02T10:46:00.656Z,13.47
2018-06-02T10:48:28.822Z,13.03
2018-06-02T10:50:57.044Z,12.13
2018-06-02T10:53:25.262Z,14.83
2018-06-02T10:55:53.472Z,14.20
2018-06-02T10:58:21.731Z,15.67
2018-06-02T11:00:49.895Z,16.13
2018-06-02T11:03:18.122Z,12.30
2018-06-02T11:05:46.326Z,17.07
2018-06-02T11:08:14.560Z,14.63
2018-06-02T11:10:43.538Z,18.73
2018-06-02T11:13:11.750Z,13.67
2018-06-02T11:15:39.958Z,14.97
2018-06-02T11:18:09.698Z,16.80
2018-06-02T11:20:37.902Z,11.47
2018-06-02T11:23:06.115Z,17.83
2018-06-02T11:25:35.121Z,14.50
2018-06-02T11:28:03.499Z,14.67
2018-06-02T11:30:31.726Z,17.57
2018-06-02T11:32:59.930Z,17.63
2018-06-02T11:35:29.446Z,20.90
2018-06-02T11:37:57.702Z,17.80
2018-06-02T11:40:25.986Z,23.50
2018-06-02T11:42:54.959Z,21.47
2018-06-02T11:45:23.183Z,18.67
2018-06-02T11:47:51.391Z,23.77
2018-06-02T11:50:19.610Z,18.47
2018-06-02T11:52:47.818Z,19.27
2018-06-02T11:55:16.035Z,17.60
2018-06-02T11:57:44.250Z,19.30
2018-06-02T12:00:12.500Z,21.77
2018-06-02T12:02:40.709Z,21.17
2018-06-02T12:05:08.937Z,21.57
2018-06-02T12:07:37.135Z,21.97
2018-06-02T12:10:05.350Z,23.53
2018-06-02T12:12:33.565Z,24.03
2018-06-02T12:15:01.772Z,20.10
2018-06-02T12:17:29.986Z,22.80
2018-06-02T12:19:58.195Z,17.00
2018-06-02T12:22:26.562Z,18.57
2018-06-02T12:24:54.766Z,17.07
2018-06-02T12:27:22.971Z,18.60
2018-06-02T12:29:51.192Z,15.27
2018-06-02T12:32:19.391Z,19.00
2018-06-02T12:34:47.597Z,16.30
2018-06-02T12:37:15.795Z,14.30
2018-06-02T12:39:44.003Z,14.93
2018-06-02T12:42:12.216Z,16.73
2018-06-02T12:44:40.423Z,14.30
2018-06-02T12:47:08.627Z,13.23
2018-06-02T12:49:36.874Z,13.23
2018-06-02T12:52:05.076Z,13.63
2018-06-02T12:54:33.277Z,14.23
2018-06-02T12:57:01.476Z,14.30
2018-06-02T12:59:29.754Z,11.73
2018-06-02T13:01:57.964Z,15.83
2018-06-02T13:04:26.171Z,17.37
2018-06-02T13:06:54.410Z,18.93
2018-06-02T13:09:22.630Z,14.40
2018-06-02T13:11:50.837Z,13.30
2018-06-02T13:14:19.063Z,11.27
2018-06-02T13:16:47.292Z,9.03
2018-06-02T13:19:15.495Z,10.03
2018-06-02T13:21:43.719Z,9.17
2018-06-02T13:24:11.919Z,9.27
2018-06-02T13:26:40.118Z,9.40
2018-06-02T13:29:08.314Z,9.30
2018-06-02T13:31:36.531Z,7.93
2018-06-02T13:34:05.486Z,7.97
2018-06-02T13:36:33.692Z,8.80
2018-06-02T13:39:01.903Z,10.27
2018-06-02T13:41:30.090Z,8.13
2018-06-02T13:43:58.286Z,7.93
2018-06-02T13:46:26.483Z,9.30
2018-06-02T13:48:54.716Z,7.97
2018-06-02T13:51:22.953Z,8.77
2018-06-02T13:53:51.110Z,9.00
2018-06-02T13:56:19.318Z,8.87
2018-06-02T13:58:47.518Z,8.87
2018-06-02T14:01:15.730Z,10.00
2018-06-02T14:03:43.931Z,8.00
2018-06-02T14:06:12.131Z,8.93
2018-06-02T14:08:40.337Z,9.37
2018-06-02T14:11:08.540Z,9.30
2018-06-02T14:13:36.789Z,8.70
2018-06-02T14:16:04.979Z,8.80
2018-06-02T14:18:33.205Z,8.80
2018-06-02T14:21:01.383Z,9.57
2018-06-02T14:23:29.587Z,8.67
2018-06-02T14:25:57.810Z,11.20
2018-06-02T14:28:26.004Z,7.93
2018-06-02T14:30:54.223Z,10.03
2018-06-02T14:33:22.410Z,11.67
2018-06-02T14:35:50.618Z,12.40
2018-06-02T14:38:18.834Z,15.23
2018-06-02T14:40:47.039Z,15.70
2018-06-02T14:43:15.254Z,15.60
2018-06-02T14:45:43.458Z,17.57
2018-06-02T14:48:11.671Z,16.20
2018-06-02T14:50:39.887Z,17.90
2018-06-02T14:53:08.107Z,19.23
2018-06-02T14:55:36.459Z,16.70
2018-06-02T14:58:05.487Z,17.87
2018-06-02T15:00:33.743Z,20.20
2018-06-02T15:03:02.005Z,15.50
2018-06-02T15:05:30.370Z,17.77
2018-06-02T15:07:59.350Z,18.63
2018-06-02T15:10:27.591Z,15.40
2018-06-02T15:12:55.798Z,14.93
2018-06-02T15:15:24.011Z,14.10
2018-06-02T15:17:52.248Z,15.87
2018-06-02T15:20:20.447Z,13.37
2018-06-02T15:22:48.696Z,11.23
2018-06-02T15:25:16.902Z,15.07
2018-06-02T15:27:45.119Z,16.47
2018-06-02T15:30:13.330Z,12.77
2018-06-02T15:32:41.534Z,11.70
2018-06-02T15:35:09.754Z,11.57
2018-06-02T15:37:37.963Z,13.27
2018-06-02T15:40:06.191Z,10.70
2018-06-02T15:42:34.407Z,10.53
2018-06-02T15:45:02.600Z,12.07
2018-06-02T15:47:30.914Z,12.17
2018-06-02T15:49:59.115Z,20.27
2018-06-02T15:52:27.517Z,15.70
2018-06-02T15:54:55.751Z,10.93
2018-06-02T15:57:23.950Z,12.13
2018-06-02T15:59:52.918Z,11.20
2018-06-02T16:02:21.307Z,14.10
2018-06-02T16:04:49.510Z,15.50
2018-06-02T16:07:17.725Z,20.23
2018-06-02T16:09:45.932Z,17.17
2018-06-02T16:12:14.143Z,10.03
2018-06-02T16:14:43.118Z,20.47
2018-06-02T16:17:11.345Z,15.87
2018-06-02T16:19:39.563Z,22.53
2018-06-02T16:22:07.770Z,18.27
2018-06-02T16:24:36.096Z,19.07
2018-06-02T16:27:04.416Z,19.00
2018-06-02T16:29:32.614Z,22.33
2018-06-02T16:32:00.836Z,20.23
2018-06-02T16:34:29.063Z,24.50
2018-06-02T16:36:57.282Z,22.60
2018-06-02T16:39:25.533Z,23.10
2018-06-02T16:41:53.719Z,21.30
2018-06-02T16:44:22.706Z,19.70
2018-06-02T16:46:50.911Z,21.40
2018-06-02T16:49:19.177Z,22.60
2018-06-02T16:51:47.362Z,24.00
2018-06-02T16:54:15.643Z,23.07
2018-06-02T16:56:43.838Z,22.40
2018-06-02T16:59:12.154Z,25.00
2018-06-02T17:01:41.127Z,23.97
2018-06-02T17:04:09.333Z,25.30
2018-06-02T17:06:37.539Z,25.67
2018-06-02T17:09:05.771Z,26.17
2018-06-02T17:11:34.036Z,30.90
2018-06-02T17:14:02.259Z,24.03
2018-06-02T17:16:30.418Z,33.77
2018-06-02T17:18:58.622Z,34.17
2018-06-02T17:21:26.839Z,34.53
2018-06-02T17:23:55.065Z,33.70
2018-06-02T17:26:23.272Z,32.13
2018-06-02T17:28:51.472Z,34.67
2018-06-02T17:31:20.443Z,30.90
2018-06-02T17:33:48.662Z,32.27
2018-06-02T17:36:16.866Z,43.37
2018-06-02T17:38:45.121Z,37.70
2018-06-02T17:41:13.307Z,37.03
2018-06-02T17:43:41.518Z,39.33
2018-06-02T17:46:09.743Z,40.20
2018-06-02T17:48:37.948Z,45.70
2018-06-02T17:51:06.146Z,39.73
2018-06-02T17:53:35.215Z,40.60
2018-06-02T17:56:03.471Z,36.80
2018-06-02T17:58:31.682Z,43.83
2018-06-02T18:00:59.886Z,40.87
2018-06-02T18:03:28.106Z,44.07
2018-06-02T18:05:56.315Z,43.60
2018-06-02T18:08:24.597Z,39.17
2018-06-02T18:10:53.580Z,43.57
2018-06-02T18:13:22.559Z,46.33
2018-06-02T18:15:51.535Z,47.60
2018-06-02T18:18:19.743Z,50.23
2018-06-02T18:20:47.959Z,52.27
2018-06-02T18:23:16.182Z,50.87
2018-06-02T18:25:44.391Z,51.65
2018-06-02T18:28:13.366Z,59.83
2018-06-02T18:30:41.587Z,51.07
2018-06-02T18:33:10.304Z,53.03
2018-06-02T18:35:38.481Z,55.57
2018-06-02T18:38:07.464Z,50.80
2018-06-02T18:40:35.674Z,53.23
2018-06-02T18:43:03.888Z,53.10
2018-06-02T18:45:32.101Z,57.30
2018-06-02T18:48:00.497Z,64.17
2018-06-02T18:50:29.451Z,59.47
2018-06-02T18:52:57.654Z,56.47
2018-06-02T18:55:25.898Z,52.87
2018-06-02T18:57:54.115Z,55.23
2018-06-02T19:00:22.340Z,54.80
2018-06-02T19:02:50.558Z,64.57
2018-06-02T19:05:18.754Z,63.33
2018-06-02T19:07:46.994Z,64.13
2018-06-02T19:10:15.241Z,70.10
2018-06-02T19:12:43.455Z,62.37
2018-06-02T19:15:11.663Z,58.07
2018-06-02T19:17:39.873Z,72.03
2018-06-02T19:20:08.083Z,63.27
2018-06-02T19:22:36.312Z,74.80
2018-06-02T19:25:04.551Z,72.83
2018-06-02T19:27:32.759Z,64.13
2018-06-02T19:30:01.735Z,70.43
2018-06-02T19:32:29.946Z,73.13
2018-06-02T19:34:58.154Z,65.13
2018-06-02T19:37:26.364Z,67.80
2018-06-02T19:39:54.597Z,73.33
2018-06-02T19:42:22.803Z,79.13
2018-06-02T19:44:51.011Z,63.17
2018-06-02T19:47:19.233Z,60.60
2018-06-02T19:49:47.474Z,61.77
2018-06-02T19:52:15.683Z,57.17
2018-06-02T19:54:43.887Z,63.43
2018-06-02T19:57:12.088Z,60.43
2018-06-02T19:59:40.292Z,48.40
2018-06-02T20:02:08.512Z,64.77
2018-06-02T20:04:36.734Z,73.37
2018-06-02T20:07:04.943Z,66.80
2018-06-02T20:09:33.171Z,63.57
2018-06-02T20:12:01.387Z,75.97
2018-06-02T20:14:29.633Z,67.40
2018-06-02T20:17:00.558Z,80.83
2018-06-02T20:19:28.866Z,68.30
2018-06-02T20:21:57.094Z,57.67
2018-06-02T20:24:25.306Z,65.47
2018-06-02T20:26:53.478Z,64.63
2018-06-02T20:29:21.684Z,66.47
2018-06-02T20:31:49.894Z,64.70
2018-06-02T20:34:18.108Z,65.77
2018-06-02T20:36:46.322Z,66.63
2018-06-02T20:39:15.319Z,65.93
2018-06-02T20:41:44.300Z,65.93
2018-06-02T20:44:13.294Z,70.30
2018-06-02T20:46:41.655Z,68.43
2018-06-02T20:49:09.995Z,69.30
2018-06-02T20:51:38.192Z,71.13
2018-06-02T20:54:06.398Z,71.23
2018-06-02T20:56:35.655Z,73.40
2018-06-02T20:59:03.870Z,69.70
2018-06-02T21:01:32.846Z,74.03
2018-06-02T21:04:01.046Z,70.67
2018-06-02T21:06:29.293Z,75.50
2018-06-02T21:08:57.542Z,66.73
2018-06-02T21:11:25.714Z,70.87
2018-06-02T21:13:53.931Z,71.30
2018-06-02T21:16:22.207Z,76.80
2018-06-02T21:18:50.437Z,68.93
2018-06-02T21:21:18.641Z,66.93
2018-06-02T21:23:48.616Z,76.43
2018-06-02T21:26:16.794Z,59.17
2018-06-02T21:28:45.003Z,71.93
2018-06-02T21:31:13.203Z,68.50
2018-06-02T21:33:41.480Z,66.33
2018-06-02T21:36:10.266Z,71.17
2018-06-02T21:38:39.223Z,76.20
2018-06-02T21:41:07.419Z,71.60
2018-06-02T21:43:35.622Z,68.63
2018-06-02T21:46:03.848Z,66.37
2018-06-02T21:48:32.066Z,71.77
2018-06-02T21:51:00.282Z,72.60
2018-06-02T21:53:28.486Z,75.87
2018-06-02T21:55:56.687Z,71.03
2018-06-02T21:58:24.916Z,79.27
2018-06-02T22:00:53.123Z,61.37
2018-06-02T22:03:21.327Z,73.77
2018-06-02T22:05:49.555Z,78.17
2018-06-02T22:08:18.543Z,72.77
2018-06-02T22:10:46.866Z,69.43
2018-06-02T22:13:15.062Z,76.30
2018-06-02T22:15:43.280Z,74.73
2018-06-02T22:18:11.634Z,69.70
2018-06-02T22:20:40.607Z,79.83
2018-06-02T22:23:08.852Z,78.30
2018-06-02T22:25:37.071Z,77.70
2018-06-02T22:28:05.302Z,78.40
2018-06-02T22:30:33.512Z,82.40
2018-06-02T22:33:01.722Z,81.07
2018-06-02T22:35:29.927Z,79.60
2018-06-02T22:37:58.144Z,80.77
2018-06-02T22:40:26.347Z,70.33
2018-06-02T22:42:54.590Z,73.63
2018-06-02T22:45:22.796Z,74.73
2018-06-02T22:47:51.002Z,85.67
2018-06-02T22:50:19.320Z,79.20
2018-06-02T22:52:48.307Z,41.30
2018-06-02T22:55:17.280Z,44.00
2018-06-02T22:57:45.490Z,34.20
2018-06-02T23:00:14.527Z,36.73
2018-06-02T23:02:42.499Z,40.47
2018-06-02T23:05:10.460Z,36.77
2018-06-02T23:07:38.442Z,42.47
2018-06-02T23:10:07.253Z,35.73
2018-06-02T23:12:35.218Z,35.80
2018-06-02T23:15:03.186Z,38.47
2018-06-02T23:17:31.158Z,35.53
2018-06-02T23:20:00.140Z,33.13
2018-06-02T23:22:39.839Z,33.03
2018-06-02T23:25:08.569Z,32.47
2018-06-02T23:27:37.566Z,30.10
2018-06-02T23:30:05.540Z,33.07
2018-06-02T23:32:33.504Z,35.43
2018-06-02T23:35:01.472Z,33.63
2018-06-02T23:37:30.456Z,29.43
2018-06-02T23:39:58.438Z,30.90
2018-06-02T23:42:26.415Z,32.73
2018-06-02T23:44:54.391Z,30.17
2018-06-02T23:47:22.353Z,31.93
2018-06-02T23:49:50.322Z,31.20
2018-06-02T23:52:18.299Z,34.40
2018-06-02T23:54:47.247Z,32.63
2018-06-02T23:57:15.213Z,28.03
2018-06-02T23:59:43.178Z,34.73
